sensor_id;sensor_type;location;lat;lon;timestamp;P1;durP1;ratioP1;P2;durP2;ratioP2
77513;SDS011;66626;48.872;9.084;2024-03-07T00:00:05;31.42;;;14.48;;
77513;SDS011;66626;48.872;9.084;2024-03-07T00:02:42;34.15;;;15.07;;
77513;SDS011;66626;48.872;9.084;2024-03-07T00:05:08;30.80;;;15.55;;
77513;SDS011;66626;48.872;9.084;2024-03-07T00:07:44;34.58;;;16.83;;
77513;SDS011;66626;48.872;9.084;2024-03-07T00:10:09;39.67;;;17.52;;
77513;SDS011;66626;48.872;9.084;2024-03-07T00:12:35;31.77;;;15.77;;
77513;SDS011;66626;48.872;9.084;2024-03-07T00:15:02;34.88;;;16.38;;
77513;SDS011;66626;48.872;9.084;2024-03-07T00:17:28;32.75;;;15.38;;
77513;SDS011;66626;48.872;9.084;2024-03-07T00:19:53;35.60;;;16.83;;
77513;SDS011;66626;48.872;9.084;2024-03-07T00:22:19;33.60;;;15.98;;
77513;SDS011;66626;48.872;9.084;2024-03-07T00:24:44;35.95;;;16.13;;
77513;SDS011;66626;48.872;9.084;2024-03-07T00:27:12;33.38;;;16.10;;
77513;SDS011;66626;48.872;9.084;2024-03-07T00:29:39;33.10;;;15.77;;
77513;SDS011;66626;48.872;9.084;2024-03-07T00:32:05;29.75;;;15.88;;
77513;SDS011;66626;48.872;9.084;2024-03-07T00:34:30;31.63;;;15.88;;
77513;SDS011;66626;48.872;9.084;2024-03-07T00:36:55;38.63;;;18.75;;
77513;SDS011;66626;48.872;9.084;2024-03-07T00:39:23;36.42;;;16.92;;
77513;SDS011;66626;48.872;9.084;2024-03-07T00:41:49;37.40;;;17.75;;
77513;SDS011;66626;48.872;9.084;2024-03-07T00:44:16;37.13;;;17.90;;
77513;SDS011;66626;48.872;9.084;2024-03-07T00:46:43;38.10;;;18.13;;
77513;SDS011;66626;48.872;9.084;2024-03-07T00:49:12;35.60;;;16.65;;
77513;SDS011;66626;48.872;9.084;2024-03-07T00:51:37;35.35;;;15.48;;
77513;SDS011;66626;48.872;9.084;2024-03-07T00:54:05;37.85;;;17.00;;
77513;SDS011;66626;48.872;9.084;2024-03-07T00:56:31;34.25;;;16.98;;
77513;SDS011;66626;48.872;9.084;2024-03-07T00:58:56;37.17;;;16.05;;
77513;SDS011;66626;48.872;9.084;2024-03-07T01:01:22;35.53;;;18.30;;
77513;SDS011;66626;48.872;9.084;2024-03-07T01:03:47;33.63;;;16.85;;
77513;SDS011;66626;48.872;9.084;2024-03-07T01:06:12;36.35;;;18.65;;
77513;SDS011;66626;48.872;9.084;2024-03-07T01:08:38;42.00;;;18.90;;
77513;SDS011;66626;48.872;9.084;2024-03-07T01:11:04;41.40;;;18.98;;
77513;SDS011;66626;48.872;9.084;2024-03-07T01:13:39;35.78;;;18.25;;
77513;SDS011;66626;48.872;9.084;2024-03-07T01:16:05;37.80;;;16.88;;
77513;SDS011;66626;48.872;9.084;2024-03-07T01:18:31;39.15;;;19.33;;
77513;SDS011;66626;48.872;9.084;2024-03-07T01:21:03;33.95;;;17.23;;
77513;SDS011;66626;48.872;9.084;2024-03-07T01:23:30;37.60;;;18.70;;
77513;SDS011;66626;48.872;9.084;2024-03-07T01:25:56;37.80;;;18.30;;
77513;SDS011;66626;48.872;9.084;2024-03-07T01:28:22;34.88;;;16.33;;
77513;SDS011;66626;48.872;9.084;2024-03-07T01:30:51;38.08;;;18.58;;
77513;SDS011;66626;48.872;9.084;2024-03-07T01:33:17;36.63;;;16.77;;
77513;SDS011;66626;48.872;9.084;2024-03-07T01:35:43;37.28;;;18.88;;
77513;SDS011;66626;48.872;9.084;2024-03-07T01:38:08;41.17;;;19.67;;
77513;SDS011;66626;48.872;9.084;2024-03-07T01:40:35;44.58;;;19.90;;
77513;SDS011;66626;48.872;9.084;2024-03-07T01:43:01;39.10;;;20.15;;
77513;SDS011;66626;48.872;9.084;2024-03-07T01:45:27;38.05;;;18.38;;
77513;SDS011;66626;48.872;9.084;2024-03-07T01:47:53;37.28;;;18.60;;
77513;SDS011;66626;48.872;9.084;2024-03-07T01:50:22;40.38;;;19.75;;
77513;SDS011;66626;48.872;9.084;2024-03-07T01:52:47;42.15;;;18.73;;
77513;SDS011;66626;48.872;9.084;2024-03-07T01:55:16;36.40;;;17.85;;
77513;SDS011;66626;48.872;9.084;2024-03-07T01:57:45;33.13;;;16.55;;
77513;SDS011;66626;48.872;9.084;2024-03-07T02:00:11;38.60;;;19.73;;
77513;SDS011;66626;48.872;9.084;2024-03-07T02:02:39;36.53;;;18.15;;
77513;SDS011;66626;48.872;9.084;2024-03-07T02:05:04;39.97;;;18.05;;
77513;SDS011;66626;48.872;9.084;2024-03-07T02:07:31;38.53;;;18.95;;
77513;SDS011;66626;48.872;9.084;2024-03-07T02:10:03;44.95;;;19.98;;
77513;SDS011;66626;48.872;9.084;2024-03-07T02:12:29;37.65;;;18.15;;
77513;SDS011;66626;48.872;9.084;2024-03-07T02:14:55;45.97;;;18.00;;
77513;SDS011;66626;48.872;9.084;2024-03-07T02:17:22;40.33;;;19.75;;
77513;SDS011;66626;48.872;9.084;2024-03-07T02:19:48;52.40;;;21.80;;
77513;SDS011;66626;48.872;9.084;2024-03-07T02:22:13;41.78;;;17.38;;
77513;SDS011;66626;48.872;9.084;2024-03-07T02:24:41;35.05;;;17.45;;
77513;SDS011;66626;48.872;9.084;2024-03-07T02:27:09;40.45;;;19.02;;
77513;SDS011;66626;48.872;9.084;2024-03-07T02:29:37;38.40;;;18.83;;
77513;SDS011;66626;48.872;9.084;2024-03-07T02:32:09;40.00;;;19.90;;
77513;SDS011;66626;48.872;9.084;2024-03-07T02:34:37;42.33;;;18.30;;
77513;SDS011;66626;48.872;9.084;2024-03-07T02:37:05;38.78;;;18.63;;
77513;SDS011;66626;48.872;9.084;2024-03-07T02:39:30;38.20;;;16.38;;
77513;SDS011;66626;48.872;9.084;2024-03-07T02:41:55;40.05;;;18.20;;
77513;SDS011;66626;48.872;9.084;2024-03-07T02:44:21;39.45;;;19.15;;
77513;SDS011;66626;48.872;9.084;2024-03-07T02:46:49;39.67;;;20.02;;
77513;SDS011;66626;48.872;9.084;2024-03-07T02:49:14;40.85;;;19.10;;
77513;SDS011;66626;48.872;9.084;2024-03-07T02:51:40;41.28;;;18.23;;
77513;SDS011;66626;48.872;9.084;2024-03-07T02:54:08;41.75;;;20.42;;
77513;SDS011;66626;48.872;9.084;2024-03-07T02:56:34;39.42;;;17.52;;
77513;SDS011;66626;48.872;9.084;2024-03-07T02:59:00;42.95;;;20.35;;
77513;SDS011;66626;48.872;9.084;2024-03-07T03:01:26;41.03;;;18.88;;
77513;SDS011;66626;48.872;9.084;2024-03-07T03:03:51;40.13;;;18.23;;
77513;SDS011;66626;48.872;9.084;2024-03-07T03:06:17;40.47;;;18.92;;
77513;SDS011;66626;48.872;9.084;2024-03-07T03:08:48;39.63;;;16.52;;
77513;SDS011;66626;48.872;9.084;2024-03-07T03:11:14;45.13;;;19.67;;
77513;SDS011;66626;48.872;9.084;2024-03-07T03:13:42;37.05;;;18.27;;
77513;SDS011;66626;48.872;9.084;2024-03-07T03:16:08;38.70;;;17.77;;
77513;SDS011;66626;48.872;9.084;2024-03-07T03:18:34;43.78;;;19.23;;
77513;SDS011;66626;48.872;9.084;2024-03-07T03:21:00;44.08;;;20.00;;
77513;SDS011;66626;48.872;9.084;2024-03-07T03:23:27;41.83;;;18.25;;
77513;SDS011;66626;48.872;9.084;2024-03-07T03:25:55;38.60;;;17.35;;
77513;SDS011;66626;48.872;9.084;2024-03-07T03:28:21;39.28;;;18.85;;
77513;SDS011;66626;48.872;9.084;2024-03-07T03:30:47;40.67;;;17.80;;
77513;SDS011;66626;48.872;9.084;2024-03-07T03:33:13;40.85;;;19.70;;
77513;SDS011;66626;48.872;9.084;2024-03-07T03:35:39;41.15;;;18.00;;
77513;SDS011;66626;48.872;9.084;2024-03-07T03:38:04;43.25;;;18.65;;
77513;SDS011;66626;48.872;9.084;2024-03-07T03:40:31;36.72;;;18.88;;
77513;SDS011;66626;48.872;9.084;2024-03-07T03:42:57;36.03;;;18.20;;
77513;SDS011;66626;48.872;9.084;2024-03-07T03:45:22;36.83;;;16.63;;
77513;SDS011;66626;48.872;9.084;2024-03-07T03:47:50;42.58;;;15.82;;
77513;SDS011;66626;48.872;9.084;2024-03-07T03:50:16;37.45;;;18.15;;
77513;SDS011;66626;48.872;9.084;2024-03-07T03:52:42;42.92;;;17.58;;
77513;SDS011;66626;48.872;9.084;2024-03-07T03:55:08;38.67;;;18.13;;
77513;SDS011;66626;48.872;9.084;2024-03-07T03:57:41;32.45;;;17.13;;
77513;SDS011;66626;48.872;9.084;2024-03-07T04:02:39;35.75;;;16.90;;
77513;SDS011;66626;48.872;9.084;2024-03-07T04:05:11;39.60;;;18.77;;
77513;SDS011;66626;48.872;9.084;2024-03-07T04:07:40;43.35;;;19.02;;
77513;SDS011;66626;48.872;9.084;2024-03-07T04:10:09;37.45;;;17.58;;
77513;SDS011;66626;48.872;9.084;2024-03-07T04:12:36;40.75;;;19.00;;
77513;SDS011;66626;48.872;9.084;2024-03-07T04:15:13;41.97;;;17.75;;
77513;SDS011;66626;48.872;9.084;2024-03-07T04:17:41;39.35;;;18.83;;
77513;SDS011;66626;48.872;9.084;2024-03-07T04:20:13;42.63;;;19.38;;
77513;SDS011;66626;48.872;9.084;2024-03-07T04:22:41;43.65;;;18.80;;
77513;SDS011;66626;48.872;9.084;2024-03-07T04:25:07;40.03;;;17.58;;
77513;SDS011;66626;48.872;9.084;2024-03-07T04:27:37;36.90;;;19.52;;
77513;SDS011;66626;48.872;9.084;2024-03-07T04:32:36;34.78;;;16.67;;
77513;SDS011;66626;48.872;9.084;2024-03-07T04:35:02;37.30;;;18.40;;
77513;SDS011;66626;48.872;9.084;2024-03-07T04:37:32;37.05;;;17.38;;
77513;SDS011;66626;48.872;9.084;2024-03-07T04:40:01;35.63;;;17.58;;
77513;SDS011;66626;48.872;9.084;2024-03-07T04:42:40;38.97;;;17.70;;
77513;SDS011;66626;48.872;9.084;2024-03-07T04:45:09;40.40;;;19.02;;
77513;SDS011;66626;48.872;9.084;2024-03-07T04:47:37;43.55;;;18.67;;
77513;SDS011;66626;48.872;9.084;2024-03-07T04:50:03;35.22;;;16.73;;
77513;SDS011;66626;48.872;9.084;2024-03-07T04:52:29;37.08;;;17.23;;
77513;SDS011;66626;48.872;9.084;2024-03-07T04:54:55;37.60;;;17.73;;
77513;SDS011;66626;48.872;9.084;2024-03-07T04:57:20;37.00;;;17.88;;
77513;SDS011;66626;48.872;9.084;2024-03-07T04:59:46;39.63;;;16.83;;
77513;SDS011;66626;48.872;9.084;2024-03-07T05:02:16;39.08;;;16.73;;
77513;SDS011;66626;48.872;9.084;2024-03-07T05:04:44;33.00;;;15.85;;
77513;SDS011;66626;48.872;9.084;2024-03-07T05:07:10;35.45;;;16.98;;
77513;SDS011;66626;48.872;9.084;2024-03-07T05:09:35;37.45;;;19.20;;
77513;SDS011;66626;48.872;9.084;2024-03-07T05:12:00;38.53;;;16.58;;
77513;SDS011;66626;48.872;9.084;2024-03-07T05:14:26;38.63;;;17.63;;
77513;SDS011;66626;48.872;9.084;2024-03-07T05:16:54;36.33;;;17.48;;
77513;SDS011;66626;48.872;9.084;2024-03-07T05:19:33;40.92;;;18.17;;
77513;SDS011;66626;48.872;9.084;2024-03-07T05:21:59;46.13;;;19.08;;
77513;SDS011;66626;48.872;9.084;2024-03-07T05:24:24;37.92;;;17.92;;
77513;SDS011;66626;48.872;9.084;2024-03-07T05:26:53;42.40;;;17.50;;
77513;SDS011;66626;48.872;9.084;2024-03-07T05:29:19;39.42;;;18.35;;
77513;SDS011;66626;48.872;9.084;2024-03-07T05:31:44;40.13;;;15.75;;
77513;SDS011;66626;48.872;9.084;2024-03-07T05:34:14;43.70;;;17.95;;
77513;SDS011;66626;48.872;9.084;2024-03-07T05:36:48;39.15;;;19.88;;
77513;SDS011;66626;48.872;9.084;2024-03-07T05:39:14;45.78;;;19.50;;
77513;SDS011;66626;48.872;9.084;2024-03-07T05:41:40;51.88;;;22.15;;
77513;SDS011;66626;48.872;9.084;2024-03-07T05:44:07;57.45;;;26.48;;
77513;SDS011;66626;48.872;9.084;2024-03-07T05:46:36;34.53;;;16.77;;
77513;SDS011;66626;48.872;9.084;2024-03-07T05:49:12;32.95;;;15.80;;
77513;SDS011;66626;48.872;9.084;2024-03-07T05:51:37;36.33;;;17.05;;
77513;SDS011;66626;48.872;9.084;2024-03-07T05:54:03;37.63;;;17.15;;
77513;SDS011;66626;48.872;9.084;2024-03-07T05:56:35;35.97;;;16.67;;
77513;SDS011;66626;48.872;9.084;2024-03-07T05:59:01;35.13;;;16.77;;
77513;SDS011;66626;48.872;9.084;2024-03-07T06:01:29;36.03;;;16.30;;
77513;SDS011;66626;48.872;9.084;2024-03-07T06:04:01;39.90;;;17.80;;
77513;SDS011;66626;48.872;9.084;2024-03-07T06:06:28;35.08;;;16.48;;
77513;SDS011;66626;48.872;9.084;2024-03-07T06:08:53;40.45;;;18.63;;
77513;SDS011;66626;48.872;9.084;2024-03-07T06:11:19;53.78;;;23.33;;
77513;SDS011;66626;48.872;9.084;2024-03-07T06:13:47;45.58;;;22.35;;
77513;SDS011;66626;48.872;9.084;2024-03-07T06:16:13;34.88;;;16.85;;
77513;SDS011;66626;48.872;9.084;2024-03-07T06:18:39;31.23;;;16.67;;
77513;SDS011;66626;48.872;9.084;2024-03-07T06:21:12;36.20;;;15.15;;
77513;SDS011;66626;48.872;9.084;2024-03-07T06:23:38;39.20;;;17.70;;
77513;SDS011;66626;48.872;9.084;2024-03-07T06:26:06;41.90;;;18.35;;
77513;SDS011;66626;48.872;9.084;2024-03-07T06:28:38;32.25;;;15.05;;
77513;SDS011;66626;48.872;9.084;2024-03-07T06:31:07;34.40;;;15.70;;
77513;SDS011;66626;48.872;9.084;2024-03-07T06:33:35;39.92;;;19.58;;
77513;SDS011;66626;48.872;9.084;2024-03-07T06:36:02;35.45;;;18.20;;
77513;SDS011;66626;48.872;9.084;2024-03-07T06:38:27;37.90;;;16.90;;
77513;SDS011;66626;48.872;9.084;2024-03-07T06:40:53;47.25;;;20.10;;
77513;SDS011;66626;48.872;9.084;2024-03-07T06:43:20;43.22;;;19.25;;
77513;SDS011;66626;48.872;9.084;2024-03-07T06:45:46;39.08;;;18.00;;
77513;SDS011;66626;48.872;9.084;2024-03-07T06:48:11;41.90;;;17.42;;
77513;SDS011;66626;48.872;9.084;2024-03-07T06:50:39;38.13;;;18.58;;
77513;SDS011;66626;48.872;9.084;2024-03-07T06:53:09;34.70;;;17.75;;
77513;SDS011;66626;48.872;9.084;2024-03-07T06:55:35;33.20;;;18.58;;
77513;SDS011;66626;48.872;9.084;2024-03-07T06:58:00;40.15;;;19.50;;
77513;SDS011;66626;48.872;9.084;2024-03-07T07:00:27;40.13;;;18.30;;
77513;SDS011;66626;48.872;9.084;2024-03-07T07:02:53;41.17;;;18.58;;
77513;SDS011;66626;48.872;9.084;2024-03-07T07:05:22;49.97;;;21.80;;
77513;SDS011;66626;48.872;9.084;2024-03-07T07:07:51;43.03;;;19.00;;
77513;SDS011;66626;48.872;9.084;2024-03-07T07:10:16;39.55;;;17.92;;
77513;SDS011;66626;48.872;9.084;2024-03-07T07:12:55;38.55;;;17.20;;
77513;SDS011;66626;48.872;9.084;2024-03-07T07:15:21;34.30;;;17.02;;
77513;SDS011;66626;48.872;9.084;2024-03-07T07:17:47;35.63;;;16.88;;
77513;SDS011;66626;48.872;9.084;2024-03-07T07:20:14;38.45;;;18.70;;
77513;SDS011;66626;48.872;9.084;2024-03-07T07:22:44;35.65;;;17.50;;
77513;SDS011;66626;48.872;9.084;2024-03-07T07:25:11;41.40;;;17.52;;
77513;SDS011;66626;48.872;9.084;2024-03-07T07:27:48;37.22;;;16.20;;
77513;SDS011;66626;48.872;9.084;2024-03-07T07:30:17;37.88;;;17.05;;
77513;SDS011;66626;48.872;9.084;2024-03-07T07:32:44;34.75;;;15.55;;
77513;SDS011;66626;48.872;9.084;2024-03-07T07:35:11;31.73;;;15.82;;
77513;SDS011;66626;48.872;9.084;2024-03-07T07:37:37;32.63;;;17.33;;
77513;SDS011;66626;48.872;9.084;2024-03-07T07:40:04;36.47;;;17.25;;
77513;SDS011;66626;48.872;9.084;2024-03-07T07:42:33;33.17;;;16.58;;
77513;SDS011;66626;48.872;9.084;2024-03-07T07:44:58;36.78;;;15.43;;
77513;SDS011;66626;48.872;9.084;2024-03-07T07:47:23;34.67;;;17.65;;
77513;SDS011;66626;48.872;9.084;2024-03-07T07:49:49;36.85;;;17.80;;
77513;SDS011;66626;48.872;9.084;2024-03-07T07:52:14;40.20;;;18.25;;
77513;SDS011;66626;48.872;9.084;2024-03-07T07:54:44;30.77;;;15.43;;
77513;SDS011;66626;48.872;9.084;2024-03-07T07:57:09;28.48;;;13.75;;
77513;SDS011;66626;48.872;9.084;2024-03-07T07:59:35;31.80;;;15.05;;
77513;SDS011;66626;48.872;9.084;2024-03-07T08:02:01;26.48;;;14.45;;
77513;SDS011;66626;48.872;9.084;2024-03-07T08:04:27;30.35;;;14.63;;
77513;SDS011;66626;48.872;9.084;2024-03-07T08:06:52;29.90;;;14.80;;
77513;SDS011;66626;48.872;9.084;2024-03-07T08:09:18;25.63;;;13.50;;
77513;SDS011;66626;48.872;9.084;2024-03-07T08:11:43;29.65;;;13.60;;
77513;SDS011;66626;48.872;9.084;2024-03-07T08:14:09;21.73;;;12.80;;
77513;SDS011;66626;48.872;9.084;2024-03-07T08:16:34;29.77;;;14.73;;
77513;SDS011;66626;48.872;9.084;2024-03-07T08:19:00;26.75;;;13.57;;
77513;SDS011;66626;48.872;9.084;2024-03-07T08:21:25;29.83;;;14.18;;
77513;SDS011;66626;48.872;9.084;2024-03-07T08:23:50;28.23;;;13.32;;
77513;SDS011;66626;48.872;9.084;2024-03-07T08:26:16;32.25;;;16.20;;
77513;SDS011;66626;48.872;9.084;2024-03-07T08:28:42;26.33;;;13.55;;
77513;SDS011;66626;48.872;9.084;2024-03-07T08:31:07;27.08;;;13.57;;
77513;SDS011;66626;48.872;9.084;2024-03-07T08:33:34;24.30;;;12.60;;
77513;SDS011;66626;48.872;9.084;2024-03-07T08:35:59;27.20;;;14.18;;
77513;SDS011;66626;48.872;9.084;2024-03-07T08:38:25;29.23;;;12.52;;
77513;SDS011;66626;48.872;9.084;2024-03-07T08:40:51;26.88;;;13.60;;
77513;SDS011;66626;48.872;9.084;2024-03-07T08:43:17;33.67;;;13.82;;
77513;SDS011;66626;48.872;9.084;2024-03-07T08:45:42;25.48;;;13.32;;
77513;SDS011;66626;48.872;9.084;2024-03-07T08:48:08;26.85;;;14.15;;
77513;SDS011;66626;48.872;9.084;2024-03-07T08:50:38;26.65;;;13.48;;
77513;SDS011;66626;48.872;9.084;2024-03-07T08:53:03;25.92;;;13.55;;
77513;SDS011;66626;48.872;9.084;2024-03-07T08:55:32;30.50;;;13.30;;
77513;SDS011;66626;48.872;9.084;2024-03-07T08:57:57;26.08;;;15.32;;
77513;SDS011;66626;48.872;9.084;2024-03-07T09:00:23;28.92;;;15.77;;
77513;SDS011;66626;48.872;9.084;2024-03-07T09:02:55;23.45;;;12.85;;
77513;SDS011;66626;48.872;9.084;2024-03-07T09:05:23;24.50;;;11.98;;
77513;SDS011;66626;48.872;9.084;2024-03-07T09:07:48;27.88;;;14.23;;
77513;SDS011;66626;48.872;9.084;2024-03-07T09:10:14;28.40;;;14.30;;
77513;SDS011;66626;48.872;9.084;2024-03-07T09:12:40;28.02;;;14.55;;
77513;SDS011;66626;48.872;9.084;2024-03-07T09:15:06;28.80;;;13.13;;
77513;SDS011;66626;48.872;9.084;2024-03-07T09:17:31;27.30;;;15.50;;
77513;SDS011;66626;48.872;9.084;2024-03-07T09:19:57;30.13;;;14.18;;
77513;SDS011;66626;48.872;9.084;2024-03-07T09:22:22;28.98;;;14.57;;
77513;SDS011;66626;48.872;9.084;2024-03-07T09:24:48;27.08;;;13.77;;
77513;SDS011;66626;48.872;9.084;2024-03-07T09:27:13;27.15;;;14.20;;
77513;SDS011;66626;48.872;9.084;2024-03-07T09:29:40;30.58;;;14.13;;
77513;SDS011;66626;48.872;9.084;2024-03-07T09:32:05;30.35;;;14.75;;
77513;SDS011;66626;48.872;9.084;2024-03-07T09:34:33;25.75;;;15.25;;
77513;SDS011;66626;48.872;9.084;2024-03-07T09:37:00;26.77;;;14.68;;
77513;SDS011;66626;48.872;9.084;2024-03-07T09:39:26;29.83;;;12.70;;
77513;SDS011;66626;48.872;9.084;2024-03-07T09:41:51;31.27;;;15.10;;
77513;SDS011;66626;48.872;9.084;2024-03-07T09:44:17;31.75;;;14.50;;
77513;SDS011;66626;48.872;9.084;2024-03-07T09:46:47;26.30;;;14.70;;
77513;SDS011;66626;48.872;9.084;2024-03-07T09:49:13;30.77;;;16.30;;
77513;SDS011;66626;48.872;9.084;2024-03-07T09:51:39;30.48;;;15.13;;
77513;SDS011;66626;48.872;9.084;2024-03-07T09:54:04;30.98;;;16.00;;
77513;SDS011;66626;48.872;9.084;2024-03-07T09:56:30;29.45;;;15.15;;
77513;SDS011;66626;48.872;9.084;2024-03-07T09:59:03;29.27;;;14.80;;
77513;SDS011;66626;48.872;9.084;2024-03-07T10:01:30;26.38;;;13.65;;
77513;SDS011;66626;48.872;9.084;2024-03-07T10:03:59;27.42;;;15.27;;
77513;SDS011;66626;48.872;9.084;2024-03-07T10:06:35;30.08;;;15.75;;
77513;SDS011;66626;48.872;9.084;2024-03-07T10:09:00;26.40;;;14.55;;
77513;SDS011;66626;48.872;9.084;2024-03-07T10:11:25;29.00;;;15.20;;
77513;SDS011;66626;48.872;9.084;2024-03-07T10:13:52;28.27;;;13.75;;
77513;SDS011;66626;48.872;9.084;2024-03-07T10:16:18;30.65;;;15.35;;
77513;SDS011;66626;48.872;9.084;2024-03-07T10:18:43;25.63;;;13.48;;
77513;SDS011;66626;48.872;9.084;2024-03-07T10:21:10;25.05;;;14.70;;
77513;SDS011;66626;48.872;9.084;2024-03-07T10:23:36;24.73;;;13.95;;
77513;SDS011;66626;48.872;9.084;2024-03-07T10:26:01;27.95;;;14.73;;
77513;SDS011;66626;48.872;9.084;2024-03-07T10:28:29;26.27;;;12.60;;
77513;SDS011;66626;48.872;9.084;2024-03-07T10:30:56;23.60;;;12.15;;
77513;SDS011;66626;48.872;9.084;2024-03-07T10:33:21;29.35;;;14.50;;
77513;SDS011;66626;48.872;9.084;2024-03-07T10:35:52;25.15;;;14.32;;
77513;SDS011;66626;48.872;9.084;2024-03-07T10:38:20;26.40;;;15.18;;
77513;SDS011;66626;48.872;9.084;2024-03-07T10:40:52;27.45;;;13.88;;
77513;SDS011;66626;48.872;9.084;2024-03-07T10:43:19;28.08;;;14.02;;
77513;SDS011;66626;48.872;9.084;2024-03-07T10:45:45;30.52;;;15.02;;
77513;SDS011;66626;48.872;9.084;2024-03-07T10:48:13;25.60;;;12.90;;
77513;SDS011;66626;48.872;9.084;2024-03-07T10:50:43;26.02;;;13.88;;
77513;SDS011;66626;48.872;9.084;2024-03-07T10:53:19;26.90;;;13.05;;
77513;SDS011;66626;48.872;9.084;2024-03-07T11:04:19;30.50;;;15.50;;
77513;SDS011;66626;48.872;9.084;2024-03-07T11:06:47;29.08;;;15.43;;
77513;SDS011;66626;48.872;9.084;2024-03-07T11:09:14;28.08;;;15.85;;
77513;SDS011;66626;48.872;9.084;2024-03-07T11:11:47;30.10;;;15.05;;
77513;SDS011;66626;48.872;9.084;2024-03-07T11:14:13;31.83;;;16.95;;
77513;SDS011;66626;48.872;9.084;2024-03-07T11:16:41;30.50;;;14.27;;
77513;SDS011;66626;48.872;9.084;2024-03-07T11:22:01;29.88;;;14.02;;
77513;SDS011;66626;48.872;9.084;2024-03-07T11:24:33;31.75;;;16.13;;
77513;SDS011;66626;48.872;9.084;2024-03-07T11:26:59;33.90;;;16.80;;
77513;SDS011;66626;48.872;9.084;2024-03-07T11:32:22;32.10;;;16.17;;
77513;SDS011;66626;48.872;9.084;2024-03-07T11:34:48;33.80;;;16.92;;
77513;SDS011;66626;48.872;9.084;2024-03-07T11:40:13;30.25;;;14.82;;
77513;SDS011;66626;48.872;9.084;2024-03-07T11:43:00;29.92;;;17.55;;
77513;SDS011;66626;48.872;9.084;2024-03-07T11:45:29;32.65;;;15.65;;
77513;SDS011;66626;48.872;9.084;2024-03-07T11:47:58;31.13;;;14.13;;
77513;SDS011;66626;48.872;9.084;2024-03-07T11:50:34;28.67;;;14.40;;
77513;SDS011;66626;48.872;9.084;2024-03-07T11:53:07;32.50;;;16.02;;
77513;SDS011;66626;48.872;9.084;2024-03-07T11:55:37;31.20;;;14.10;;
77513;SDS011;66626;48.872;9.084;2024-03-07T11:58:17;34.17;;;14.60;;
77513;SDS011;66626;48.872;9.084;2024-03-07T12:00:43;31.33;;;14.48;;
77513;SDS011;66626;48.872;9.084;2024-03-07T12:03:12;31.77;;;15.50;;
77513;SDS011;66626;48.872;9.084;2024-03-07T12:05:39;33.08;;;16.13;;
77513;SDS011;66626;48.872;9.084;2024-03-07T12:08:06;32.33;;;15.73;;
77513;SDS011;66626;48.872;9.084;2024-03-07T12:10:31;29.60;;;15.85;;
77513;SDS011;66626;48.872;9.084;2024-03-07T12:12:57;35.63;;;16.35;;
77513;SDS011;66626;48.872;9.084;2024-03-07T12:15:22;29.88;;;14.68;;
77513;SDS011;66626;48.872;9.084;2024-03-07T12:17:48;32.05;;;15.23;;
77513;SDS011;66626;48.872;9.084;2024-03-07T12:20:15;32.88;;;14.98;;
77513;SDS011;66626;48.872;9.084;2024-03-07T12:22:55;31.45;;;15.52;;
77513;SDS011;66626;48.872;9.084;2024-03-07T12:25:21;27.80;;;14.77;;
77513;SDS011;66626;48.872;9.084;2024-03-07T12:28:08;31.65;;;16.70;;
77513;SDS011;66626;48.872;9.084;2024-03-07T12:30:57;34.35;;;16.45;;
77513;SDS011;66626;48.872;9.084;2024-03-07T12:33:22;31.95;;;14.18;;
77513;SDS011;66626;48.872;9.084;2024-03-07T12:35:51;30.90;;;14.85;;
77513;SDS011;66626;48.872;9.084;2024-03-07T12:38:20;36.80;;;16.17;;
77513;SDS011;66626;48.872;9.084;2024-03-07T12:41:01;28.17;;;16.00;;
77513;SDS011;66626;48.872;9.084;2024-03-07T12:43:31;28.40;;;15.90;;
77513;SDS011;66626;48.872;9.084;2024-03-07T12:45:57;35.67;;;17.15;;
77513;SDS011;66626;48.872;9.084;2024-03-07T12:48:24;32.15;;;14.77;;
77513;SDS011;66626;48.872;9.084;2024-03-07T12:50:50;28.10;;;14.65;;
77513;SDS011;66626;48.872;9.084;2024-03-07T12:53:19;30.27;;;15.40;;
77513;SDS011;66626;48.872;9.084;2024-03-07T12:55:46;34.97;;;16.42;;
77513;SDS011;66626;48.872;9.084;2024-03-07T12:58:12;29.38;;;15.55;;
77513;SDS011;66626;48.872;9.084;2024-03-07T13:00:38;37.20;;;18.25;;
77513;SDS011;66626;48.872;9.084;2024-03-07T13:03:09;30.60;;;15.88;;
77513;SDS011;66626;48.872;9.084;2024-03-07T13:05:38;33.15;;;15.43;;
77513;SDS011;66626;48.872;9.084;2024-03-07T13:08:07;28.38;;;15.38;;
77513;SDS011;66626;48.872;9.084;2024-03-07T13:10:41;29.88;;;15.57;;
77513;SDS011;66626;48.872;9.084;2024-03-07T13:13:07;31.25;;;15.05;;
77513;SDS011;66626;48.872;9.084;2024-03-07T13:15:34;29.70;;;16.30;;
77513;SDS011;66626;48.872;9.084;2024-03-07T13:18:02;34.83;;;17.50;;
77513;SDS011;66626;48.872;9.084;2024-03-07T13:20:30;30.45;;;15.50;;
77513;SDS011;66626;48.872;9.084;2024-03-07T13:22:55;30.52;;;15.93;;
77513;SDS011;66626;48.872;9.084;2024-03-07T13:25:25;29.27;;;16.35;;
77513;SDS011;66626;48.872;9.084;2024-03-07T13:28:01;29.42;;;15.15;;
77513;SDS011;66626;48.872;9.084;2024-03-07T13:30:29;31.55;;;15.93;;
77513;SDS011;66626;48.872;9.084;2024-03-07T13:32:58;29.00;;;15.77;;
77513;SDS011;66626;48.872;9.084;2024-03-07T13:35:27;27.67;;;14.18;;
77513;SDS011;66626;48.872;9.084;2024-03-07T13:37:53;28.73;;;15.35;;
77513;SDS011;66626;48.872;9.084;2024-03-07T13:40:20;29.90;;;14.43;;
77513;SDS011;66626;48.872;9.084;2024-03-07T13:42:55;29.80;;;15.45;;
77513;SDS011;66626;48.872;9.084;2024-03-07T13:45:30;29.75;;;15.20;;
77513;SDS011;66626;48.872;9.084;2024-03-07T13:47:59;32.03;;;17.60;;
77513;SDS011;66626;48.872;9.084;2024-03-07T13:50:25;26.52;;;14.35;;
77513;SDS011;66626;48.872;9.084;2024-03-07T13:52:53;30.08;;;14.82;;
77513;SDS011;66626;48.872;9.084;2024-03-07T14:20:48;30.92;;;15.35;;
77513;SDS011;66626;48.872;9.084;2024-03-07T14:29:38;28.75;;;13.35;;
77513;SDS011;66626;48.872;9.084;2024-03-07T14:32:08;27.05;;;14.63;;
77513;SDS011;66626;48.872;9.084;2024-03-07T14:34:38;32.17;;;15.88;;
77513;SDS011;66626;48.872;9.084;2024-03-07T14:37:23;28.02;;;15.18;;
77513;SDS011;66626;48.872;9.084;2024-03-07T14:39:50;34.78;;;15.00;;
77513;SDS011;66626;48.872;9.084;2024-03-07T14:42:18;32.13;;;16.05;;
77513;SDS011;66626;48.872;9.084;2024-03-07T14:44:44;29.52;;;16.73;;
77513;SDS011;66626;48.872;9.084;2024-03-07T14:47:13;33.30;;;16.02;;
77513;SDS011;66626;48.872;9.084;2024-03-07T14:49:40;34.70;;;17.52;;
77513;SDS011;66626;48.872;9.084;2024-03-07T14:52:06;32.67;;;16.70;;
77513;SDS011;66626;48.872;9.084;2024-03-07T14:54:36;29.98;;;16.77;;
77513;SDS011;66626;48.872;9.084;2024-03-07T14:57:05;33.08;;;17.00;;
77513;SDS011;66626;48.872;9.084;2024-03-07T15:02:01;33.03;;;15.88;;
77513;SDS011;66626;48.872;9.084;2024-03-07T15:04:28;34.47;;;16.40;;
77513;SDS011;66626;48.872;9.084;2024-03-07T15:06:57;31.85;;;16.63;;
77513;SDS011;66626;48.872;9.084;2024-03-07T15:09:24;34.13;;;16.27;;
77513;SDS011;66626;48.872;9.084;2024-03-07T15:11:49;26.55;;;14.27;;
77513;SDS011;66626;48.872;9.084;2024-03-07T15:14:14;32.38;;;15.95;;
77513;SDS011;66626;48.872;9.084;2024-03-07T15:16:40;34.13;;;15.85;;
77513;SDS011;66626;48.872;9.084;2024-03-07T15:19:06;27.33;;;14.50;;